createdAt,value
2019-04-06T00:01:40.820Z,95.50
2019-04-06T00:04:08.219Z,95.40
2019-04-06T00:06:35.634Z,95.80
2019-04-06T00:09:05.054Z,95.60
2019-04-06T00:11:33.010Z,95.60
2019-04-06T00:14:00.418Z,95.60
2019-04-06T00:16:27.895Z,96.30
2019-04-06T00:18:54.832Z,96.60
2019-04-06T00:21:22.010Z,96.60
2019-04-06T00:23:49.187Z,96.60
2019-04-06T00:26:16.039Z,96.60
2019-04-06T00:28:43.181Z,96.50
2019-04-06T00:31:28.205Z,96.30
2019-04-06T00:33:55.352Z,96.10
2019-04-06T00:36:22.707Z,95.60
2019-04-06T00:38:49.708Z,95.50
2019-04-06T00:41:17.130Z,95.70
2019-04-06T00:43:44.606Z,95.90
2019-04-06T00:46:11.776Z,96.30
2019-04-06T00:48:40.675Z,96.50
2019-04-06T00:51:07.906Z,96.60
2019-04-06T00:53:35.003Z,96.60
2019-04-06T00:56:02.427Z,96.60
2019-04-06T00:58:29.897Z,96.60
2019-04-06T01:00:57.053Z,96.60
2019-04-06T01:03:24.374Z,96.60
2019-04-06T01:05:51.473Z,96.60
2019-04-06T01:08:18.524Z,96.40
2019-04-06T01:10:46.333Z,96.50
2019-04-06T01:13:13.803Z,96.40
2019-04-06T01:15:41.082Z,96.00
2019-04-06T01:18:09.558Z,96.20
2019-04-06T01:20:36.621Z,96.60
2019-04-06T01:23:03.837Z,96.60
2019-04-06T01:25:30.880Z,96.60
2019-04-06T01:27:58.038Z,96.60
2019-04-06T01:30:25.586Z,96.60
2019-04-06T01:32:52.554Z,96.60
2019-04-06T01:35:20.154Z,96.60
2019-04-06T01:37:47.430Z,96.60
2019-04-06T01:40:14.839Z,96.60
2019-04-06T01:42:41.992Z,96.60
2019-04-06T01:45:09.783Z,96.60
2019-04-06T01:47:37.068Z,96.60
2019-04-06T01:50:04.530Z,96.60
2019-04-06T01:52:31.573Z,96.60
2019-04-06T01:54:59.219Z,96.60
2019-04-06T01:57:26.834Z,96.60
2019-04-06T01:59:54.068Z,96.60
2019-04-06T02:02:29.862Z,96.60
2019-04-06T02:04:57.420Z,96.60
2019-04-06T02:07:24.719Z,96.60
2019-04-06T02:09:52.365Z,96.60
2019-04-06T02:12:19.484Z,96.60
2019-04-06T02:14:46.930Z,96.10
2019-04-06T02:17:14.274Z,95.70
2019-04-06T02:19:41.440Z,95.60
2019-04-06T02:22:08.814Z,95.10
2019-04-06T02:24:35.969Z,95.20
2019-04-06T02:27:03.326Z,95.30
2019-04-06T02:29:30.243Z,95.50
2019-04-06T02:32:19.829Z,95.50
2019-04-06T02:35:04.461Z,95.80
2019-04-06T02:37:51.406Z,95.80
2019-04-06T02:40:44.056Z,95.80
2019-04-06T02:43:23.456Z,95.40
2019-04-06T02:45:50.786Z,95.70
2019-04-06T02:48:18.049Z,95.80
2019-04-06T02:50:45.219Z,95.90
2019-04-06T02:53:12.415Z,95.80
2019-04-06T02:55:40.067Z,95.70
2019-04-06T02:58:07.502Z,95.60
2019-04-06T03:00:34.688Z,95.60
2019-04-06T03:03:01.738Z,95.50
2019-04-06T03:05:32.542Z,95.00
2019-04-06T03:08:00.254Z,95.30
2019-04-06T03:10:30.703Z,95.50
2019-04-06T03:12:58.103Z,96.00
2019-04-06T03:15:24.976Z,96.10
2019-04-06T03:17:51.923Z,96.10
2019-04-06T03:20:19.334Z,96.10
2019-04-06T03:22:46.912Z,96.20
2019-04-06T03:25:14.250Z,96.40
2019-04-06T03:27:41.423Z,96.40
2019-04-06T03:30:08.824Z,96.40
2019-04-06T03:32:35.929Z,96.60
2019-04-06T03:35:03.226Z,96.60
2019-04-06T03:37:30.164Z,96.60
2019-04-06T03:39:57.351Z,96.60
2019-04-06T03:42:24.768Z,96.60
2019-04-06T03:44:52.108Z,96.60
2019-04-06T03:47:21.893Z,96.30
2019-04-06T03:49:49.158Z,96.10
2019-04-06T03:52:16.426Z,95.70
2019-04-06T03:54:44.087Z,95.60
2019-04-06T03:57:16.159Z,95.70
2019-04-06T03:59:40.388Z,95.80
2019-04-06T04:02:07.619Z,95.80
2019-04-06T04:04:35.253Z,95.70
2019-04-06T04:07:02.423Z,95.60
2019-04-06T04:09:29.757Z,95.70
2019-04-06T04:11:57.361Z,95.90
2019-04-06T04:14:24.403Z,96.20
2019-04-06T04:16:51.873Z,96.20
2019-04-06T04:19:19.151Z,96.30
2019-04-06T04:21:46.292Z,96.40
2019-04-06T04:24:13.946Z,96.50
2019-04-06T04:26:41.491Z,96.50
2019-04-06T04:29:09.114Z,96.10
2019-04-06T04:31:36.523Z,96.10
2019-04-06T04:34:04.106Z,95.90
2019-04-06T04:36:31.085Z,95.80
2019-04-06T04:38:58.337Z,96.10
2019-04-06T04:41:28.861Z,96.50
2019-04-06T04:43:55.987Z,96.60
2019-04-06T04:46:23.416Z,96.60
2019-04-06T04:48:51.156Z,96.60
2019-04-06T04:51:18.315Z,96.60
2019-04-06T04:53:45.924Z,96.60
2019-04-06T04:56:13.264Z,96.60
2019-04-06T04:58:40.357Z,96.60
2019-04-06T05:01:07.829Z,96.50
2019-04-06T05:03:35.395Z,96.50
2019-04-06T05:06:03.710Z,96.60
2019-04-06T05:08:30.982Z,96.60
2019-04-06T05:10:58.274Z,96.60
2019-04-06T05:13:25.650Z,96.60
2019-04-06T05:16:12.748Z,96.60
2019-04-06T05:18:40.703Z,96.60
2019-04-06T05:21:08.135Z,96.60
2019-04-06T05:23:35.501Z,96.60
2019-04-06T05:26:03.230Z,96.60
2019-04-06T05:28:30.361Z,96.60
2019-04-06T05:30:57.246Z,96.60
2019-04-06T05:33:24.851Z,96.60
2019-04-06T05:35:51.851Z,96.60
2019-04-06T05:38:19.109Z,96.60
2019-04-06T05:40:46.100Z,96.60
2019-04-06T05:43:13.832Z,96.60
2019-04-06T05:45:41.125Z,96.60
2019-04-06T05:48:09.752Z,96.60
2019-04-06T05:50:37.139Z,96.60
2019-04-06T05:53:04.627Z,96.60
2019-04-06T05:55:31.836Z,96.60
2019-04-06T05:58:03.988Z,96.60
2019-04-06T06:00:28.785Z,96.60
2019-04-06T06:02:56.293Z,96.60
2019-04-06T06:05:23.469Z,96.60
2019-04-06T06:07:50.692Z,96.60
2019-04-06T06:10:18.347Z,96.60
2019-04-06T06:12:45.261Z,96.60
2019-04-06T06:15:12.421Z,96.60
2019-04-06T06:17:39.567Z,96.60
2019-04-06T06:20:07.085Z,96.60
2019-04-06T06:22:34.729Z,96.60
2019-04-06T06:25:03.188Z,96.60
2019-04-06T06:27:30.582Z,95.60
2019-04-06T06:29:57.770Z,95.30
2019-04-06T06:32:25.142Z,94.00
2019-04-06T06:34:52.650Z,93.60
2019-04-06T06:37:20.025Z,92.90
2019-04-06T06:39:47.544Z,92.10
2019-04-06T06:42:14.929Z,91.70
2019-04-06T06:44:42.555Z,90.60
2019-04-06T06:47:10.066Z,91.10
2019-04-06T06:49:37.754Z,88.70
2019-04-06T06:52:05.030Z,90.60
2019-04-06T06:54:32.382Z,87.10
2019-04-06T06:56:59.922Z,89.30
2019-04-06T06:59:27.260Z,88.90
2019-04-06T07:01:54.774Z,87.30
2019-04-06T07:04:22.386Z,88.80
2019-04-06T07:06:49.607Z,89.50
2019-04-06T07:09:17.079Z,88.30
2019-04-06T07:11:44.095Z,87.50
2019-04-06T07:14:12.729Z,85.30
2019-04-06T07:16:40.342Z,85.80
2019-04-06T07:19:08.142Z,85.90
2019-04-06T07:21:35.710Z,85.10
2019-04-06T07:24:02.977Z,85.10
2019-04-06T07:26:30.847Z,84.80
2019-04-06T07:28:58.050Z,84.20
2019-04-06T07:31:25.302Z,83.60
2019-04-06T07:33:52.670Z,83.20
2019-04-06T07:36:19.702Z,82.20
2019-04-06T07:38:47.279Z,82.20
2019-04-06T07:41:15.656Z,81.90
2019-04-06T07:43:43.218Z,81.60
2019-04-06T07:46:10.415Z,80.70
2019-04-06T07:48:38.901Z,80.70
2019-04-06T07:51:08.790Z,80.30
2019-04-06T07:53:35.967Z,79.60
2019-04-06T07:56:03.547Z,78.70
2019-04-06T07:58:31.905Z,78.80
2019-04-06T08:00:59.331Z,78.00
2019-04-06T08:03:26.706Z,78.40
2019-04-06T08:05:56.479Z,78.50
2019-04-06T08:08:23.620Z,77.40
2019-04-06T08:10:51.480Z,74.90
2019-04-06T08:13:18.481Z,74.40
2019-04-06T08:15:46.363Z,74.40
2019-04-06T08:18:13.656Z,75.00
2019-04-06T08:20:44.645Z,70.80
2019-04-06T08:23:11.633Z,68.10
2019-04-06T08:25:39.019Z,64.60
2019-04-06T08:28:06.079Z,59.90
2019-04-06T08:30:44.189Z,56.50
2019-04-06T08:33:02.378Z,55.20
2019-04-06T08:35:29.785Z,58.40
2019-04-06T08:37:57.277Z,60.30
2019-04-06T08:40:24.698Z,59.40
2019-04-06T08:42:52.732Z,57.70
2019-04-06T08:45:19.858Z,57.10
2019-04-06T08:47:47.518Z,53.40
2019-04-06T08:50:15.265Z,53.70
2019-04-06T08:52:42.450Z,56.50
2019-04-06T08:55:10.294Z,55.70
2019-04-06T08:57:37.954Z,57.30
2019-04-06T09:00:05.656Z,53.50
2019-04-06T09:02:32.984Z,54.60
2019-04-06T09:05:00.677Z,57.30
2019-04-06T09:07:28.096Z,56.60
2019-04-06T09:09:55.375Z,55.30
2019-04-06T09:12:22.679Z,56.50
2019-04-06T09:14:49.525Z,54.30
2019-04-06T09:17:16.780Z,53.90
2019-04-06T09:19:44.260Z,53.30
2019-04-06T09:22:11.609Z,53.80
2019-04-06T09:24:38.672Z,53.10
2019-04-06T09:27:06.213Z,51.70
2019-04-06T09:29:33.466Z,52.60
2019-04-06T09:32:00.620Z,53.00
2019-04-06T09:34:30.556Z,50.60
2019-04-06T09:36:57.031Z,50.20
2019-04-06T09:39:24.617Z,48.20
2019-04-06T09:41:51.946Z,49.80
2019-04-06T09:44:29.572Z,49.10
2019-04-06T09:47:09.101Z,48.20
2019-04-06T09:49:46.106Z,46.10
2019-04-06T09:52:22.098Z,46.30
2019-04-06T09:54:49.064Z,45.90
2019-04-06T09:57:36.002Z,52.60
2019-04-06T10:00:27.766Z,53.70
2019-04-06T10:03:23.435Z,54.70
2019-04-06T10:06:06.848Z,52.30
2019-04-06T10:09:11.756Z,53.10
2019-04-06T10:12:04.803Z,50.50
2019-04-06T10:14:50.271Z,56.40
2019-04-06T10:17:35.123Z,56.90
2019-04-06T10:20:14.721Z,54.20
2019-04-06T10:23:01.592Z,54.40
2019-04-06T10:25:56.824Z,54.00
2019-04-06T10:28:42.425Z,58.40
2019-04-06T10:31:32.300Z,57.30
2019-04-06T10:34:06.972Z,55.60
2019-04-06T10:37:01.012Z,53.80
2019-04-06T10:39:43.756Z,54.90
2019-04-06T10:42:29.601Z,55.00
2019-04-06T10:45:13.749Z,56.90
2019-04-06T10:47:59.693Z,52.70
2019-04-06T10:50:57.318Z,51.30
2019-04-06T10:53:36.373Z,47.90
2019-04-06T10:56:13.609Z,45.70
2019-04-06T10:58:53.224Z,45.20
2019-04-06T11:01:38.833Z,47.60
2019-04-06T11:04:16.611Z,49.30
2019-04-06T11:06:57.213Z,50.20
2019-04-06T11:09:52.910Z,50.90
2019-04-06T11:12:33.253Z,52.30
2019-04-06T11:15:19.024Z,52.70
2019-04-06T11:17:57.023Z,53.90
2019-04-06T11:20:41.099Z,54.20
2019-04-06T11:23:33.512Z,54.80
2019-04-06T11:26:20.436Z,54.50
2019-04-06T11:29:00.062Z,52.10
2019-04-06T11:31:42.051Z,49.90
2019-04-06T11:34:29.456Z,48.90
2019-04-06T11:37:31.145Z,46.80
2019-04-06T11:40:18.398Z,49.10
2019-04-06T11:42:56.520Z,45.90
2019-04-06T11:45:46.401Z,45.70
2019-04-06T11:48:33.740Z,47.40
2019-04-06T11:51:24.771Z,46.10
2019-04-06T11:54:12.840Z,45.30
2019-04-06T11:56:52.052Z,44.00
2019-04-06T11:59:37.567Z,43.80
2019-04-06T12:02:21.366Z,43.80
2019-04-06T12:04:55.322Z,45.50
2019-04-06T12:07:35.497Z,47.40
2019-04-06T12:10:21.511Z,47.40
2019-04-06T12:12:56.588Z,48.80
2019-04-06T12:15:41.984Z,52.90
2019-04-06T12:18:22.863Z,53.50
2019-04-06T12:21:12.273Z,51.10
2019-04-06T12:23:57.321Z,52.20
2019-04-06T12:26:59.034Z,53.90
2019-04-06T12:29:51.781Z,53.80
2019-04-06T12:32:47.956Z,55.90
2019-04-06T12:35:25.711Z,53.60
2019-04-06T12:38:10.905Z,53.40
2019-04-06T12:41:15.871Z,58.30
2019-04-06T12:43:55.690Z,58.10
2019-04-06T12:46:57.601Z,56.40
2019-04-06T12:49:53.491Z,56.00
2019-04-06T12:52:40.431Z,57.00
2019-04-06T12:55:16.170Z,59.70
2019-04-06T12:58:01.910Z,57.00
2019-04-06T13:00:57.747Z,56.20
2019-04-06T13:03:34.469Z,57.40
2019-04-06T13:06:24.821Z,55.80
2019-04-06T13:09:14.511Z,55.40
2019-04-06T13:12:04.347Z,58.10
2019-04-06T13:14:39.988Z,58.20
2019-04-06T13:17:26.574Z,58.50
2019-04-06T13:20:23.998Z,58.50
2019-04-06T13:23:02.940Z,58.00
2019-04-06T13:25:53.359Z,54.80
2019-04-06T13:28:40.001Z,55.80
2019-04-06T13:31:28.710Z,55.80
2019-04-06T13:34:31.221Z,55.40
2019-04-06T13:37:11.191Z,59.00
2019-04-06T13:40:09.585Z,59.80
2019-04-06T13:43:14.602Z,59.90
2019-04-06T13:46:01.771Z,60.70
2019-04-06T13:48:51.761Z,62.50
2019-04-06T13:51:41.620Z,60.90
2019-04-06T13:54:29.696Z,61.20
2019-04-06T13:57:05.973Z,60.70
2019-04-06T13:59:41.729Z,61.50
2019-04-06T14:02:15.826Z,61.20
2019-04-06T14:05:01.468Z,61.80
2019-04-06T14:07:51.032Z,61.20
2019-04-06T14:10:36.265Z,59.80
2019-04-06T14:13:23.346Z,59.60
2019-04-06T14:16:09.331Z,59.70
2019-04-06T14:18:58.295Z,59.10
2019-04-06T14:21:53.106Z,58.30
2019-04-06T14:24:28.482Z,58.00
2019-04-06T14:27:18.362Z,56.80
2019-04-06T14:29:54.161Z,55.10
2019-04-06T14:32:32.128Z,55.40
2019-04-06T14:35:18.772Z,56.60
2019-04-06T14:37:58.465Z,54.60
2019-04-06T14:40:36.130Z,54.00
2019-04-06T14:43:15.343Z,52.70
2019-04-06T14:46:01.013Z,51.70
2019-04-06T14:48:50.664Z,51.20
2019-04-06T14:51:30.571Z,52.30
2019-04-06T14:54:08.069Z,51.90
2019-04-06T14:56:42.976Z,53.60
2019-04-06T14:59:33.031Z,54.00
2019-04-06T15:02:16.848Z,53.80
2019-04-06T15:05:03.643Z,53.00
2019-04-06T15:07:57.035Z,52.40
2019-04-06T15:10:38.978Z,52.50
2019-04-06T15:13:12.153Z,52.60
2019-04-06T15:15:57.892Z,51.30
2019-04-06T15:18:50.632Z,50.30
2019-04-06T15:21:47.134Z,50.90
2019-04-06T15:24:34.067Z,51.10
2019-04-06T15:27:18.242Z,49.00
2019-04-06T15:30:13.713Z,49.70
2019-04-06T15:33:04.195Z,50.80
2019-04-06T15:35:49.481Z,49.50
2019-04-06T15:38:43.065Z,48.50
2019-04-06T15:41:35.776Z,48.00
2019-04-06T15:44:20.895Z,47.30
2019-04-06T15:46:56.465Z,46.90
2019-04-06T15:49:45.004Z,47.00
2019-04-06T15:52:22.110Z,45.30
2019-04-06T15:55:11.511Z,44.60
2019-04-06T15:57:52.659Z,43.70
2019-04-06T16:00:32.129Z,42.80
2019-04-06T16:03:17.601Z,42.90
2019-04-06T16:06:10.184Z,42.60
2019-04-06T16:08:55.082Z,42.40
2019-04-06T16:11:50.630Z,43.30
2019-04-06T16:14:25.547Z,43.30
2019-04-06T16:17:01.804Z,43.00
2019-04-06T16:20:00.251Z,43.60
2019-04-06T16:22:50.033Z,43.90
2019-04-06T16:25:29.729Z,43.70
2019-04-06T16:28:26.098Z,44.80
2019-04-06T16:31:09.442Z,44.50
2019-04-06T16:33:49.465Z,45.50
2019-04-06T16:36:51.098Z,45.00
2019-04-06T16:39:43.908Z,45.00
2019-04-06T16:42:30.691Z,46.00
2019-04-06T16:45:20.180Z,47.20
2019-04-06T16:48:14.302Z,48.50
2019-04-06T16:50:52.932Z,49.00
2019-04-06T16:53:48.723Z,49.90
2019-04-06T16:56:24.376Z,49.50
2019-04-06T16:58:57.589Z,51.10
2019-04-06T17:01:52.964Z,51.30
2019-04-06T17:04:34.480Z,52.20
2019-04-06T17:07:10.386Z,52.60
2019-04-06T17:09:53.297Z,54.30
2019-04-06T17:12:38.710Z,54.60
2019-04-06T17:15:24.204Z,55.40
2019-04-06T17:18:09.265Z,55.80
2019-04-06T17:20:49.395Z,56.40
2019-04-06T17:23:42.151Z,57.50
2019-04-06T17:26:34.529Z,58.50
2019-04-06T17:29:21.354Z,59.40
2019-04-06T17:32:11.144Z,60.30
2019-04-06T17:35:01.269Z,61.30
2019-04-06T17:37:40.860Z,61.80
2019-04-06T17:40:14.343Z,62.40
2019-04-06T17:42:54.858Z,63.40
2019-04-06T17:45:36.310Z,63.90
2019-04-06T17:48:26.587Z,64.80
2019-04-06T17:51:13.319Z,65.20
2019-04-06T17:54:06.240Z,65.70
2019-04-06T17:57:07.843Z,65.90
2019-04-06T18:00:07.247Z,66.60
2019-04-06T18:02:54.313Z,67.30
2019-04-06T18:05:36.210Z,67.90
2019-04-06T18:08:13.130Z,68.60
2019-04-06T18:10:53.498Z,68.90
2019-04-06T18:13:55.661Z,69.50
2019-04-06T18:16:25.618Z,70.10
2019-04-06T18:18:53.307Z,70.60
2019-04-06T18:21:25.007Z,71.10
2019-04-06T18:23:52.135Z,71.60
2019-04-06T18:26:19.844Z,72.00
2019-04-06T18:28:47.497Z,72.10
2019-04-06T18:31:32.619Z,72.50
2019-04-06T18:33:59.722Z,72.80
2019-04-06T18:36:38.170Z,73.50
2019-04-06T18:39:07.634Z,73.60
2019-04-06T18:41:35.017Z,74.10
2019-04-06T18:44:05.780Z,74.50
2019-04-06T18:46:33.030Z,74.80
2019-04-06T18:49:03.743Z,74.80
2019-04-06T18:51:31.649Z,75.40
2019-04-06T18:53:58.823Z,75.20
2019-04-06T18:56:26.621Z,75.40
2019-04-06T18:58:54.763Z,75.50
2019-04-06T19:01:22.255Z,75.90
2019-04-06T19:03:49.976Z,77.10
2019-04-06T19:06:17.868Z,77.30
2019-04-06T19:08:46.838Z,77.70
2019-04-06T19:11:14.262Z,78.40
2019-04-06T19:13:41.823Z,78.50
2019-04-06T19:16:09.447Z,78.50
2019-04-06T19:18:37.011Z,79.50
2019-04-06T19:21:04.325Z,79.60
2019-04-06T19:23:32.170Z,79.50
2019-04-06T19:25:59.566Z,80.10
2019-04-06T19:28:26.923Z,79.90
2019-04-06T19:30:54.354Z,79.60
2019-04-06T19:33:25.960Z,79.80
2019-04-06T19:35:54.022Z,80.70
2019-04-06T19:38:22.387Z,80.40
2019-04-06T19:40:49.407Z,80.50
2019-04-06T19:43:18.662Z,80.70
2019-04-06T19:45:46.371Z,81.50
2019-04-06T19:48:14.033Z,81.80
2019-04-06T19:50:44.085Z,81.60
2019-04-06T19:53:11.350Z,81.50
2019-04-06T19:55:42.518Z,82.20
2019-04-06T19:58:11.436Z,82.00
2019-04-06T20:00:39.117Z,82.10
2019-04-06T20:03:06.380Z,82.20
2019-04-06T20:05:33.442Z,82.70
2019-04-06T20:08:01.464Z,83.50
2019-04-06T20:10:29.554Z,83.70
2019-04-06T20:12:56.453Z,84.00
2019-04-06T20:15:23.515Z,84.10
2019-04-06T20:17:51.533Z,84.40
2019-04-06T20:20:18.836Z,84.70
2019-04-06T20:22:46.933Z,85.00
2019-04-06T20:25:14.256Z,85.10
2019-04-06T20:27:42.237Z,86.20
2019-04-06T20:30:10.141Z,86.50
2019-04-06T20:32:38.021Z,86.70
2019-04-06T20:35:06.863Z,86.60
2019-04-06T20:37:34.206Z,87.10
2019-04-06T20:40:01.834Z,87.30
2019-04-06T20:42:30.315Z,87.30
2019-04-06T20:44:58.058Z,86.80
2019-04-06T20:47:27.760Z,87.00
2019-04-06T20:49:55.327Z,87.90
2019-04-06T20:52:22.620Z,88.50
2019-04-06T20:54:49.621Z,88.10
2019-04-06T20:57:17.222Z,87.70
2019-04-06T20:59:44.830Z,87.30
2019-04-06T21:02:12.015Z,86.90
2019-04-06T21:04:39.700Z,87.20
2019-04-06T21:07:07.789Z,87.40
2019-04-06T21:09:36.050Z,87.50
2019-04-06T21:12:03.909Z,88.00
2019-04-06T21:14:31.564Z,88.30
2019-04-06T21:16:59.198Z,88.70
2019-04-06T21:19:27.137Z,88.60
2019-04-06T21:21:54.638Z,88.60
2019-04-06T21:24:22.370Z,88.80
2019-04-06T21:26:49.948Z,88.90
2019-04-06T21:29:17.971Z,88.90
2019-04-06T21:31:45.335Z,88.90
2019-04-06T21:34:14.765Z,89.00
2019-04-06T21:36:41.870Z,88.80
2019-04-06T21:39:08.943Z,88.60
2019-04-06T21:41:36.239Z,88.60
2019-04-06T21:44:06.607Z,88.60
2019-04-06T21:46:34.839Z,88.50
2019-04-06T21:49:02.536Z,88.20
2019-04-06T21:51:30.054Z,87.50
2019-04-06T21:53:57.562Z,87.20
2019-04-06T21:56:25.113Z,86.60
2019-04-06T21:58:54.044Z,86.10
2019-04-06T22:01:21.529Z,86.00
2019-04-06T22:03:51.635Z,85.90
2019-04-06T22:06:20.661Z,85.70
2019-04-06T22:08:48.038Z,85.60
2019-04-06T22:11:15.370Z,85.70
2019-04-06T22:13:43.120Z,85.70
2019-04-06T22:16:11.436Z,85.70
2019-04-06T22:18:39.463Z,85.70
2019-04-06T22:21:06.923Z,86.10
2019-04-06T22:23:42.354Z,86.20
2019-04-06T22:26:03.381Z,86.50
2019-04-06T22:28:31.105Z,86.80
2019-04-06T22:30:59.115Z,86.90
2019-04-06T22:33:26.628Z,87.10
2019-04-06T22:35:54.148Z,87.10
2019-04-06T22:38:21.647Z,87.00
2019-04-06T22:40:48.988Z,87.10
2019-04-06T22:43:16.811Z,87.30
2019-04-06T22:45:45.394Z,87.50
2019-04-06T22:48:13.690Z,87.40
2019-04-06T22:50:41.885Z,87.50
2019-04-06T22:53:09.271Z,87.60
2019-04-06T22:55:36.578Z,87.50
2019-04-06T22:58:04.009Z,87.70
2019-04-06T23:00:36.169Z,87.80
2019-04-06T23:03:29.155Z,87.90
2019-04-06T23:05:59.631Z,87.90
2019-04-06T23:08:27.737Z,88.00
2019-04-06T23:10:55.593Z,88.30
2019-04-06T23:13:23.820Z,88.60
2019-04-06T23:15:51.264Z,88.90
2019-04-06T23:18:19.548Z,88.90
2019-04-06T23:20:47.359Z,89.00
2019-04-06T23:23:15.389Z,88.90
2019-04-06T23:25:42.785Z,88.80
2019-04-06T23:28:09.724Z,88.90
2019-04-06T23:30:37.567Z,88.80
2019-04-06T23:33:04.999Z,89.00
2019-04-06T23:35:32.029Z,89.10
2019-04-06T23:37:59.083Z,89.30
2019-04-06T23:40:27.023Z,89.10
2019-04-06T23:42:54.734Z,89.00
2019-04-06T23:45:22.178Z,88.90
2019-04-06T23:47:50.047Z,88.40
2019-04-06T23:50:17.867Z,88.10
2019-04-06T23:52:45.168Z,87.80
2019-04-06T23:55:13.656Z,87.50
2019-04-06T23:57:40.745Z,87.30
